Flugplatz Schmallenberg-Rennefeld (EDKR)

Hier findest Du alle Informationen zum Flugplatz Schmallenberg-Rennefeld (EDKR).

Informationen für Piloten zum Flugplatz Schmallenberg-Rennefeld

Hier findest Du alle relevanten Informationen, die Du als Pilot benötigst, um Schmallenberg-Rennefeld anzufliegen.

Flugplatz: Schmallenberg-Rennefeld ICAO-Code: EDKR
Frequenz Turm: 122,425 Mhz GAFOR Gebiet: 36
Frequenz Ground: 122,425 Mhz Mogas: nein
Platzrunde: N 2200 ft Landegebühr: -
Platzhöhe: - Sunrise: 05:59 Uhr UTC
Pisten: 10/28 - 620 m x 30 m, GRAS Sunset: 16:23 Uhr UTC

Mitglieder, die in Schmallenberg-Rennefeld fliegen

Flugwetter am Flugplatz Schmallenberg-Rennefeld

Die METAR Information stammen aus EDGS (51.92 km entfernt).

METAR Code:
2020/10/15 08:50
EDGS 150850Z 33007KT 2000 BR BCFG SCT002 BKN004 OVC007 05/05 Q1016

Flugschulen am Flugplatz Schmallenberg-Rennefeld

Am Flugplatz Schmallenberg-Rennefeld gibt es leider keine Flugschule.

Benachbarte Flugplätze und Flugschulen

Es gibt 21 weitere Flugplätze in einem Umkreis von 50 km um den Flugplatz Schmallenberg-Rennefeld.

Jetzt anmelden

Passwort vergessen

Umfrage Archiv

Wären Rettungsgeräte keine Pflicht mehr, würdet Ihr Euer UL trotzdem mit einem ausstatten?

Ja
86.4 %
Nein
13.6 %
Stimmen: 354 | Diskussion
Anzeige: Roland Aircraft
Statistik Alle Mitglieder

Aktuell sind 30 Besucher online.

Anzeige: VFR Sprechfunk Simulator


Anzeige: Pocket FMS